« Back
NWS Peachtree City, Ga » Text Product » AHN Terminal Aerodrome Forecast


Printer-friendly Version
Current Version              Previous Versions:   1  2  3  4  5  6  7  8  9  

Terminal Aerodrome Forecast

911
FTUS42 KFFC 021730
TAFAHN
TAF
KAHN 021730Z 0218/0318 25008KT P6SM VCSH SCT040
      TEMPO 0218/0222 VRB15G25KT 6SM TSRA BKN035CB
     FM030100 24007KT P6SM VCSH BKN050 BKN100
     FM030900 23008KT P6SM BKN015
     FM031400 25009KT P6SM BKN025 BKN250
     FM031600 26010KT P6SM SCT050=

USA.gov is the U.S. government's official web portal to all federal, state and local government web resources and services.